sensor_id;sensor_type;location;lat;lon;timestamp;pressure;altitude;pressure_sealevel;temperature;humidity
15932;BME280;8065;49.520;11.284;2023-02-16T00:01:17;98600.22;;;4.32;77.68
15932;BME280;8065;49.520;11.284;2023-02-16T00:03:44;98602.59;;;4.34;77.66
15932;BME280;8065;49.520;11.284;2023-02-16T00:06:11;98602.59;;;4.34;77.64
15932;BME280;8065;49.520;11.284;2023-02-16T00:08:41;98601.09;;;4.43;76.85
15932;BME280;8065;49.520;11.284;2023-02-16T00:11:14;98589.56;;;4.49;76.51
15932;BME280;8065;49.520;11.284;2023-02-16T00:13:59;98594.53;;;4.45;76.28
15932;BME280;8065;49.520;11.284;2023-02-16T00:16:25;98595.03;;;4.42;76.75
15932;BME280;8065;49.520;11.284;2023-02-16T00:18:52;98588.38;;;4.35;76.91
15932;BME280;8065;49.520;11.284;2023-02-16T00:21:19;98593.63;;;4.30;76.92
15932;BME280;8065;49.520;11.284;2023-02-16T00:23:46;98589.41;;;4.28;76.73
15932;BME280;8065;49.520;11.284;2023-02-16T00:26:16;98586.72;;;4.23;76.26
15932;BME280;8065;49.520;11.284;2023-02-16T00:28:43;98593.97;;;4.11;77.47
15932;BME280;8065;49.520;11.284;2023-02-16T00:31:16;98596.59;;;4.11;77.19
15932;BME280;8065;49.520;11.284;2023-02-16T00:33:43;98584.72;;;3.82;78.34
15932;BME280;8065;49.520;11.284;2023-02-16T00:36:10;98587.28;;;3.77;78.55
15932;BME280;8065;49.520;11.284;2023-02-16T00:38:36;98583.00;;;3.71;79.10
15932;BME280;8065;49.520;11.284;2023-02-16T00:41:03;98577.75;;;3.71;78.95
15932;BME280;8065;49.520;11.284;2023-02-16T00:43:31;98579.78;;;3.63;78.54
15932;BME280;8065;49.520;11.284;2023-02-16T00:45:58;98578.66;;;3.81;78.07
15932;BME280;8065;49.520;11.284;2023-02-16T00:48:24;98579.28;;;3.67;77.13
15932;BME280;8065;49.520;11.284;2023-02-16T00:50:51;98578.06;;;3.74;77.71
15932;BME280;8065;49.520;11.284;2023-02-16T00:53:17;98574.41;;;3.75;77.25
15932;BME280;8065;49.520;11.284;2023-02-16T00:55:44;98574.19;;;3.82;76.89
15932;BME280;8065;49.520;11.284;2023-02-16T00:58:15;98573.34;;;3.76;77.40
15932;BME280;8065;49.520;11.284;2023-02-16T01:00:46;98569.56;;;3.89;76.36
15932;BME280;8065;49.520;11.284;2023-02-16T01:03:16;98577.63;;;3.82;76.43
15932;BME280;8065;49.520;11.284;2023-02-16T01:05:43;98565.88;;;3.90;76.08
15932;BME280;8065;49.520;11.284;2023-02-16T01:08:12;98567.34;;;3.81;76.92
15932;BME280;8065;49.520;11.284;2023-02-16T01:10:56;98573.31;;;3.98;76.25
15932;BME280;8065;49.520;11.284;2023-02-16T01:13:38;98567.91;;;3.83;75.96
15932;BME280;8065;49.520;11.284;2023-02-16T01:16:14;98563.38;;;3.78;76.72
15932;BME280;8065;49.520;11.284;2023-02-16T01:18:41;98569.94;;;3.76;76.47
15932;BME280;8065;49.520;11.284;2023-02-16T01:21:07;98559.41;;;3.76;77.52
15932;BME280;8065;49.520;11.284;2023-02-16T01:23:35;98562.03;;;3.76;77.66
15932;BME280;8065;49.520;11.284;2023-02-16T01:26:02;98572.56;;;3.76;77.30
15932;BME280;8065;49.520;11.284;2023-02-16T01:28:28;98558.13;;;3.78;76.69
15932;BME280;8065;49.520;11.284;2023-02-16T01:30:55;98566.25;;;3.77;76.80
15932;BME280;8065;49.520;11.284;2023-02-16T01:33:23;98550.59;;;3.87;76.10
15932;BME280;8065;49.520;11.284;2023-02-16T01:35:50;98562.34;;;3.79;76.85
15932;BME280;8065;49.520;11.284;2023-02-16T01:38:20;98557.88;;;3.80;77.52
15932;BME280;8065;49.520;11.284;2023-02-16T01:40:51;98556.13;;;3.63;77.17
15932;BME280;8065;49.520;11.284;2023-02-16T01:43:23;98555.03;;;3.59;78.12
15932;BME280;8065;49.520;11.284;2023-02-16T01:45:54;98543.06;;;3.47;78.42
15932;BME280;8065;49.520;11.284;2023-02-16T01:48:27;98539.13;;;3.44;78.19
15932;BME280;8065;49.520;11.284;2023-02-16T01:51:00;98547.19;;;3.38;78.62
15932;BME280;8065;49.520;11.284;2023-02-16T01:53:32;98544.22;;;3.56;77.90
15932;BME280;8065;49.520;11.284;2023-02-16T01:56:03;98541.59;;;3.56;77.09
15932;BME280;8065;49.520;11.284;2023-02-16T01:58:34;98543.19;;;3.57;77.14
15932;BME280;8065;49.520;11.284;2023-02-16T02:01:37;98539.25;;;3.59;77.01
15932;BME280;8065;49.520;11.284;2023-02-16T02:04:13;98538.06;;;3.45;77.35
15932;BME280;8065;49.520;11.284;2023-02-16T02:07:00;98534.34;;;3.41;77.99
15932;BME280;8065;49.520;11.284;2023-02-16T02:09:34;98537.53;;;3.43;77.17
15932;BME280;8065;49.520;11.284;2023-02-16T02:12:09;98539.84;;;3.40;77.91
15932;BME280;8065;49.520;11.284;2023-02-16T02:14:40;98533.88;;;3.49;76.94
15932;BME280;8065;49.520;11.284;2023-02-16T02:17:10;98536.38;;;3.34;77.53
15932;BME280;8065;49.520;11.284;2023-02-16T02:19:46;98535.09;;;3.37;77.34
15932;BME280;8065;49.520;11.284;2023-02-16T02:22:40;98535.31;;;3.35;76.88
15932;BME280;8065;49.520;11.284;2023-02-16T02:29:01;98515.59;;;3.11;78.47
15932;BME280;8065;49.520;11.284;2023-02-16T02:31:42;98509.25;;;3.07;78.03
15932;BME280;8065;49.520;11.284;2023-02-16T02:34:24;98526.63;;;2.91;78.51
15932;BME280;8065;49.520;11.284;2023-02-16T02:37:00;98512.97;;;3.11;76.94
15932;BME280;8065;49.520;11.284;2023-02-16T02:39:33;98517.25;;;3.17;76.87
15932;BME280;8065;49.520;11.284;2023-02-16T02:42:04;98514.13;;;3.20;77.41
15932;BME280;8065;49.520;11.284;2023-02-16T02:44:38;98520.72;;;3.01;77.58
15932;BME280;8065;49.520;11.284;2023-02-16T02:47:07;98510.22;;;3.01;78.01
15932;BME280;8065;49.520;11.284;2023-02-16T02:49:34;98503.97;;;3.07;77.75
15932;BME280;8065;49.520;11.284;2023-02-16T02:52:01;98511.19;;;2.94;78.69
15932;BME280;8065;49.520;11.284;2023-02-16T02:54:29;98510.06;;;2.90;78.03
15932;BME280;8065;49.520;11.284;2023-02-16T02:57:16;98508.34;;;2.79;78.17
15932;BME280;8065;49.520;11.284;2023-02-16T03:00:05;98517.09;;;2.85;78.60
15932;BME280;8065;49.520;11.284;2023-02-16T03:02:52;98512.94;;;2.89;78.06
15932;BME280;8065;49.520;11.284;2023-02-16T03:05:21;98517.28;;;3.00;77.41
15932;BME280;8065;49.520;11.284;2023-02-16T03:07:51;98510.63;;;2.92;77.73
15932;BME280;8065;49.520;11.284;2023-02-16T03:10:24;98510.22;;;3.01;76.55
15932;BME280;8065;49.520;11.284;2023-02-16T03:13:14;98508.19;;;3.08;77.01
15932;BME280;8065;49.520;11.284;2023-02-16T03:15:45;98506.97;;;3.15;77.13
15932;BME280;8065;49.520;11.284;2023-02-16T03:18:14;98508.25;;;3.13;77.09
15932;BME280;8065;49.520;11.284;2023-02-16T03:20:59;98507.22;;;3.14;76.87
15932;BME280;8065;49.520;11.284;2023-02-16T03:23:46;98501.91;;;3.09;76.91
15932;BME280;8065;49.520;11.284;2023-02-16T03:26:32;98498.66;;;3.02;77.89
15932;BME280;8065;49.520;11.284;2023-02-16T03:29:17;98498.25;;;3.10;76.44
15932;BME280;8065;49.520;11.284;2023-02-16T03:31:49;98497.75;;;3.13;76.54
15932;BME280;8065;49.520;11.284;2023-02-16T03:34:17;98490.38;;;3.10;77.08
15932;BME280;8065;49.520;11.284;2023-02-16T03:36:47;98485.97;;;3.15;76.87
15932;BME280;8065;49.520;11.284;2023-02-16T03:39:15;98493.53;;;3.12;75.77
15932;BME280;8065;49.520;11.284;2023-02-16T03:41:44;98482.00;;;3.13;77.15
15932;BME280;8065;49.520;11.284;2023-02-16T03:44:11;98486.72;;;3.11;76.00
15932;BME280;8065;49.520;11.284;2023-02-16T03:46:38;98485.13;;;3.10;76.67
15932;BME280;8065;49.520;11.284;2023-02-16T03:49:06;98480.22;;;2.96;77.43
15932;BME280;8065;49.520;11.284;2023-02-16T03:51:32;98475.03;;;3.02;76.88
15932;BME280;8065;49.520;11.284;2023-02-16T03:53:59;98471.13;;;2.82;77.38
15932;BME280;8065;49.520;11.284;2023-02-16T03:56:26;98476.84;;;2.79;78.20
15932;BME280;8065;49.520;11.284;2023-02-16T03:58:53;98477.59;;;2.96;77.12
15932;BME280;8065;49.520;11.284;2023-02-16T04:01:19;98474.56;;;3.05;76.63
15932;BME280;8065;49.520;11.284;2023-02-16T04:03:46;98470.78;;;2.95;77.26
15932;BME280;8065;49.520;11.284;2023-02-16T04:06:14;98456.59;;;2.96;77.73
15932;BME280;8065;49.520;11.284;2023-02-16T04:08:40;98471.59;;;2.79;77.91
15932;BME280;8065;49.520;11.284;2023-02-16T04:11:07;98460.81;;;2.97;77.18
15932;BME280;8065;49.520;11.284;2023-02-16T04:13:47;98467.91;;;2.97;77.75
15932;BME280;8065;49.520;11.284;2023-02-16T04:16:14;98468.22;;;3.01;76.45
15932;BME280;8065;49.520;11.284;2023-02-16T04:18:40;98472.72;;;3.05;76.87
15932;BME280;8065;49.520;11.284;2023-02-16T04:21:07;98485.13;;;3.10;77.20
15932;BME280;8065;49.520;11.284;2023-02-16T04:23:35;98486.78;;;3.16;76.38
15932;BME280;8065;49.520;11.284;2023-02-16T04:26:01;98495.75;;;3.20;77.40
15932;BME280;8065;49.520;11.284;2023-02-16T04:28:28;98496.13;;;3.28;75.91
15932;BME280;8065;49.520;11.284;2023-02-16T04:30:54;98500.09;;;3.31;76.29
15932;BME280;8065;49.520;11.284;2023-02-16T04:33:21;98508.03;;;3.36;75.97
15932;BME280;8065;49.520;11.284;2023-02-16T04:35:47;98515.16;;;3.41;75.83
15932;BME280;8065;49.520;11.284;2023-02-16T04:38:14;98515.47;;;3.44;75.56
15932;BME280;8065;49.520;11.284;2023-02-16T04:40:42;98515.22;;;3.46;75.57
15932;BME280;8065;49.520;11.284;2023-02-16T04:43:08;98512.31;;;3.42;75.75
15932;BME280;8065;49.520;11.284;2023-02-16T04:45:35;98519.16;;;3.48;75.50
15932;BME280;8065;49.520;11.284;2023-02-16T04:48:02;98512.38;;;3.52;75.96
15932;BME280;8065;49.520;11.284;2023-02-16T04:50:28;98516.06;;;3.51;75.16
15932;BME280;8065;49.520;11.284;2023-02-16T04:52:55;98509.97;;;3.46;75.99
15932;BME280;8065;49.520;11.284;2023-02-16T04:55:22;98512.66;;;3.29;75.82
15932;BME280;8065;49.520;11.284;2023-02-16T04:57:50;98506.44;;;3.13;76.21
15932;BME280;8065;49.520;11.284;2023-02-16T05:00:18;98505.56;;;3.08;76.38
15932;BME280;8065;49.520;11.284;2023-02-16T05:02:44;98506.41;;;2.91;77.15
15932;BME280;8065;49.520;11.284;2023-02-16T05:05:11;98506.06;;;3.05;76.29
15932;BME280;8065;49.520;11.284;2023-02-16T05:07:38;98504.34;;;2.93;76.56
15932;BME280;8065;49.520;11.284;2023-02-16T05:10:05;98508.34;;;2.79;75.82
15932;BME280;8065;49.520;11.284;2023-02-16T05:12:32;98516.13;;;2.91;76.49
15932;BME280;8065;49.520;11.284;2023-02-16T05:15:17;98505.16;;;2.77;76.62
15932;BME280;8065;49.520;11.284;2023-02-16T05:17:44;98502.41;;;2.67;77.32
15932;BME280;8065;49.520;11.284;2023-02-16T05:20:11;98516.78;;;2.64;77.39
15932;BME280;8065;49.520;11.284;2023-02-16T05:22:38;98510.41;;;2.77;76.75
15932;BME280;8065;49.520;11.284;2023-02-16T05:25:05;98518.34;;;2.82;76.97
15932;BME280;8065;49.520;11.284;2023-02-16T05:27:32;98522.63;;;2.88;77.22
15932;BME280;8065;49.520;11.284;2023-02-16T05:29:58;98523.13;;;2.85;76.69
15932;BME280;8065;49.520;11.284;2023-02-16T05:32:26;98514.69;;;2.83;77.07
15932;BME280;8065;49.520;11.284;2023-02-16T05:34:52;98527.25;;;2.81;77.00
15932;BME280;8065;49.520;11.284;2023-02-16T05:37:19;98535.06;;;2.76;76.23
15932;BME280;8065;49.520;11.284;2023-02-16T05:39:46;98535.06;;;2.76;76.18
15932;BME280;8065;49.520;11.284;2023-02-16T05:42:12;98531.34;;;2.72;76.43
15932;BME280;8065;49.520;11.284;2023-02-16T05:44:39;98528.72;;;2.72;76.57
15932;BME280;8065;49.520;11.284;2023-02-16T05:47:05;98531.25;;;2.67;76.70
15932;BME280;8065;49.520;11.284;2023-02-16T05:49:33;98533.97;;;2.72;76.80
15932;BME280;8065;49.520;11.284;2023-02-16T05:52:00;98538.72;;;2.75;76.55
15932;BME280;8065;49.520;11.284;2023-02-16T05:54:26;98538.41;;;2.72;76.67
15932;BME280;8065;49.520;11.284;2023-02-16T05:56:53;98550.56;;;2.78;76.69
15932;BME280;8065;49.520;11.284;2023-02-16T05:59:19;98552.59;;;2.54;77.46
15932;BME280;8065;49.520;11.284;2023-02-16T06:01:46;98548.94;;;2.55;77.63
15932;BME280;8065;49.520;11.284;2023-02-16T06:04:13;98552.91;;;2.41;78.38
15932;BME280;8065;49.520;11.284;2023-02-16T06:06:41;98549.91;;;2.49;78.70
15932;BME280;8065;49.520;11.284;2023-02-16T06:09:08;98544.41;;;2.34;78.86
15932;BME280;8065;49.520;11.284;2023-02-16T06:11:35;98553.38;;;2.38;79.01
15932;BME280;8065;49.520;11.284;2023-02-16T06:14:03;98547.25;;;2.32;78.94
15932;BME280;8065;49.520;11.284;2023-02-16T06:16:31;98551.16;;;2.29;79.63
15932;BME280;8065;49.520;11.284;2023-02-16T06:18:58;98550.06;;;2.42;79.24
15932;BME280;8065;49.520;11.284;2023-02-16T06:21:25;98547.34;;;2.54;77.75
15932;BME280;8065;49.520;11.284;2023-02-16T06:23:53;98548.38;;;2.53;78.37
15932;BME280;8065;49.520;11.284;2023-02-16T06:26:20;98557.22;;;2.47;78.83
15932;BME280;8065;49.520;11.284;2023-02-16T06:28:47;98555.13;;;2.49;78.90
15932;BME280;8065;49.520;11.284;2023-02-16T06:31:13;98547.03;;;2.50;78.54
15932;BME280;8065;49.520;11.284;2023-02-16T06:33:40;98560.47;;;2.54;78.33
15932;BME280;8065;49.520;11.284;2023-02-16T06:36:08;98554.88;;;2.67;77.43
15932;BME280;8065;49.520;11.284;2023-02-16T06:38:34;98541.81;;;2.72;77.83
15932;BME280;8065;49.520;11.284;2023-02-16T06:41:02;98544.94;;;2.69;77.63
15932;BME280;8065;49.520;11.284;2023-02-16T06:43:29;98546.34;;;2.77;77.13
15932;BME280;8065;49.520;11.284;2023-02-16T06:45:55;98551.28;;;2.73;77.75
15932;BME280;8065;49.520;11.284;2023-02-16T06:48:22;98548.25;;;2.81;78.19
15932;BME280;8065;49.520;11.284;2023-02-16T06:50:48;98547.22;;;2.82;77.23
15932;BME280;8065;49.520;11.284;2023-02-16T06:53:15;98549.69;;;2.89;78.41
15932;BME280;8065;49.520;11.284;2023-02-16T06:55:41;98557.09;;;2.75;78.34
15932;BME280;8065;49.520;11.284;2023-02-16T06:58:09;98554.13;;;2.88;77.55
15932;BME280;8065;49.520;11.284;2023-02-16T07:00:36;98566.06;;;2.79;78.25
15932;BME280;8065;49.520;11.284;2023-02-16T07:03:03;98574.16;;;2.94;77.99
15932;BME280;8065;49.520;11.284;2023-02-16T07:05:30;98574.81;;;3.02;77.88
15932;BME280;8065;49.520;11.284;2023-02-16T07:07:56;98573.84;;;3.08;77.32
15932;BME280;8065;49.520;11.284;2023-02-16T07:10:23;98576.53;;;3.13;77.24
15932;BME280;8065;49.520;11.284;2023-02-16T07:12:49;98562.78;;;3.06;77.51
15932;BME280;8065;49.520;11.284;2023-02-16T07:15:17;98569.22;;;3.15;78.47
15932;BME280;8065;49.520;11.284;2023-02-16T07:17:44;98571.41;;;3.23;77.81
15932;BME280;8065;49.520;11.284;2023-02-16T07:20:11;98566.78;;;3.30;77.92
15932;BME280;8065;49.520;11.284;2023-02-16T07:22:37;98570.31;;;3.19;78.28
15932;BME280;8065;49.520;11.284;2023-02-16T07:25:04;98572.53;;;3.27;78.21
15932;BME280;8065;49.520;11.284;2023-02-16T07:27:31;98572.66;;;3.37;77.37
15932;BME280;8065;49.520;11.284;2023-02-16T07:29:57;98574.25;;;3.38;77.43
15932;BME280;8065;49.520;11.284;2023-02-16T07:32:27;98569.59;;;3.45;77.77
15932;BME280;8065;49.520;11.284;2023-02-16T07:34:54;98564.44;;;3.55;76.75
15932;BME280;8065;49.520;11.284;2023-02-16T07:37:21;98570.38;;;3.68;76.32
15932;BME280;8065;49.520;11.284;2023-02-16T07:39:47;98568.34;;;3.75;76.93
15932;BME280;8065;49.520;11.284;2023-02-16T07:42:13;98563.25;;;3.41;77.68
15932;BME280;8065;49.520;11.284;2023-02-16T07:44:40;98555.91;;;3.43;77.95
15932;BME280;8065;49.520;11.284;2023-02-16T07:47:06;98558.31;;;3.72;77.49
15932;BME280;8065;49.520;11.284;2023-02-16T07:49:34;98558.38;;;3.77;77.93
15932;BME280;8065;49.520;11.284;2023-02-16T07:52:00;98561.31;;;3.80;77.14
15932;BME280;8065;49.520;11.284;2023-02-16T07:54:27;98553.19;;;4.09;77.66
15932;BME280;8065;49.520;11.284;2023-02-16T07:56:53;98554.06;;;4.19;77.09
15932;BME280;8065;49.520;11.284;2023-02-16T07:59:20;98547.53;;;4.59;76.07
15932;BME280;8065;49.520;11.284;2023-02-16T08:01:46;98551.44;;;4.51;77.03
15932;BME280;8065;49.520;11.284;2023-02-16T08:04:13;98550.94;;;4.91;75.90
15932;BME280;8065;49.520;11.284;2023-02-16T08:06:41;98553.41;;;4.71;75.07
15932;BME280;8065;49.520;11.284;2023-02-16T08:09:08;98554.13;;;4.99;74.20
15932;BME280;8065;49.520;11.284;2023-02-16T08:11:34;98552.56;;;5.03;74.73
15932;BME280;8065;49.520;11.284;2023-02-16T08:14:01;98549.50;;;5.16;74.97
15932;BME280;8065;49.520;11.284;2023-02-16T08:16:28;98553.59;;;4.97;74.80
15932;BME280;8065;49.520;11.284;2023-02-16T08:18:56;98551.13;;;5.32;75.25
15932;BME280;8065;49.520;11.284;2023-02-16T08:21:26;98549.72;;;5.77;73.78
15932;BME280;8065;49.520;11.284;2023-02-16T08:23:57;98551.66;;;6.02;72.69
15932;BME280;8065;49.520;11.284;2023-02-16T08:26:26;98546.13;;;6.44;72.20
15932;BME280;8065;49.520;11.284;2023-02-16T08:28:56;98544.00;;;6.31;71.38
15932;BME280;8065;49.520;11.284;2023-02-16T08:31:25;98546.13;;;6.03;71.51
15932;BME280;8065;49.520;11.284;2023-02-16T08:33:54;98547.72;;;6.60;70.39
15932;BME280;8065;49.520;11.284;2023-02-16T08:36:23;98549.03;;;6.63;70.76
15932;BME280;8065;49.520;11.284;2023-02-16T08:38:51;98545.31;;;6.79;69.86
15932;BME280;8065;49.520;11.284;2023-02-16T08:41:21;98554.47;;;7.12;69.36
15932;BME280;8065;49.520;11.284;2023-02-16T08:43:48;98555.50;;;7.26;69.10
15932;BME280;8065;49.520;11.284;2023-02-16T08:46:17;98558.09;;;7.46;67.15
15932;BME280;8065;49.520;11.284;2023-02-16T08:48:43;98560.53;;;7.28;68.39
15932;BME280;8065;49.520;11.284;2023-02-16T08:51:12;98567.03;;;7.61;67.38
15932;BME280;8065;49.520;11.284;2023-02-16T08:53:39;98561.84;;;8.34;66.28
15932;BME280;8065;49.520;11.284;2023-02-16T08:56:06;98562.78;;;8.53;65.51
15932;BME280;8065;49.520;11.284;2023-02-16T08:58:35;98562.84;;;9.01;64.92
15932;BME280;8065;49.520;11.284;2023-02-16T09:01:03;98561.19;;;9.10;62.91
15932;BME280;8065;49.520;11.284;2023-02-16T09:03:30;98567.41;;;8.95;63.31
15932;BME280;8065;49.520;11.284;2023-02-16T09:05:59;98572.38;;;9.02;63.78
15932;BME280;8065;49.520;11.284;2023-02-16T09:08:26;98571.50;;;9.78;62.88
15932;BME280;8065;49.520;11.284;2023-02-16T09:10:53;98570.78;;;9.72;62.90
15932;BME280;8065;49.520;11.284;2023-02-16T09:13:20;98576.88;;;9.73;61.11
15932;BME280;8065;49.520;11.284;2023-02-16T09:15:48;98579.72;;;9.58;62.13
15932;BME280;8065;49.520;11.284;2023-02-16T09:18:14;98584.44;;;9.84;61.28
15932;BME280;8065;49.520;11.284;2023-02-16T09:20:42;98581.06;;;10.54;60.29
15932;BME280;8065;49.520;11.284;2023-02-16T09:23:10;98570.00;;;11.12;58.73
15932;BME280;8065;49.520;11.284;2023-02-16T09:25:39;98574.91;;;11.60;57.45
15932;BME280;8065;49.520;11.284;2023-02-16T09:28:06;98572.19;;;12.14;56.58
15932;BME280;8065;49.520;11.284;2023-02-16T09:30:34;98578.13;;;12.11;56.38
15932;BME280;8065;49.520;11.284;2023-02-16T09:33:04;98581.50;;;12.62;55.01
15932;BME280;8065;49.520;11.284;2023-02-16T09:35:30;98589.09;;;13.30;54.33
15932;BME280;8065;49.520;11.284;2023-02-16T09:37:57;98586.84;;;13.55;53.37
15932;BME280;8065;49.520;11.284;2023-02-16T09:40:24;98587.47;;;13.52;52.64
15932;BME280;8065;49.520;11.284;2023-02-16T09:42:59;98584.09;;;13.86;51.71
15932;BME280;8065;49.520;11.284;2023-02-16T09:45:30;98588.97;;;13.92;52.31
15932;BME280;8065;49.520;11.284;2023-02-16T09:47:59;98591.09;;;13.56;52.87
15932;BME280;8065;49.520;11.284;2023-02-16T09:50:29;98594.97;;;14.15;51.63
15932;BME280;8065;49.520;11.284;2023-02-16T09:52:59;98585.88;;;14.59;51.16
15932;BME280;8065;49.520;11.284;2023-02-16T09:55:32;98591.03;;;14.82;51.11
15932;BME280;8065;49.520;11.284;2023-02-16T09:58:10;98578.78;;;14.11;52.08
15932;BME280;8065;49.520;11.284;2023-02-16T10:00:44;98577.31;;;13.71;52.41
15932;BME280;8065;49.520;11.284;2023-02-16T10:03:26;98576.56;;;13.96;52.66
15932;BME280;8065;49.520;11.284;2023-02-16T10:06:02;98578.97;;;14.58;52.14
15932;BME280;8065;49.520;11.284;2023-02-16T10:08:38;98583.94;;;14.86;50.91
15932;BME280;8065;49.520;11.284;2023-02-16T10:11:10;98569.34;;;15.21;50.76
15932;BME280;8065;49.520;11.284;2023-02-16T10:13:54;98575.41;;;15.77;49.60
15932;BME280;8065;49.520;11.284;2023-02-16T10:16:27;98574.25;;;16.08;49.48
15932;BME280;8065;49.520;11.284;2023-02-16T10:18:55;98569.75;;;15.99;48.84
15932;BME280;8065;49.520;11.284;2023-02-16T10:21:27;98558.38;;;16.02;49.34
15932;BME280;8065;49.520;11.284;2023-02-16T10:23:59;98557.66;;;16.35;48.65
15932;BME280;8065;49.520;11.284;2023-02-16T10:26:30;98566.16;;;16.37;48.54
15932;BME280;8065;49.520;11.284;2023-02-16T10:29:02;98553.41;;;16.67;48.07
15932;BME280;8065;49.520;11.284;2023-02-16T10:31:35;98550.53;;;16.51;47.40
15932;BME280;8065;49.520;11.284;2023-02-16T10:34:16;98548.84;;;16.47;47.64
15932;BME280;8065;49.520;11.284;2023-02-16T10:37:03;98549.63;;;16.68;48.68
15932;BME280;8065;49.520;11.284;2023-02-16T10:39:40;98542.38;;;16.81;48.38
15932;BME280;8065;49.520;11.284;2023-02-16T10:42:15;98545.16;;;16.51;48.20
15932;BME280;8065;49.520;11.284;2023-02-16T10:44:46;98540.38;;;16.90;46.88
15932;BME280;8065;49.520;11.284;2023-02-16T10:47:24;98546.03;;;17.21;46.90
15932;BME280;8065;49.520;11.284;2023-02-16T10:49:53;98532.81;;;17.41;46.28
15932;BME280;8065;49.520;11.284;2023-02-16T10:52:23;98526.88;;;17.47;46.06
15932;BME280;8065;49.520;11.284;2023-02-16T10:54:50;98533.03;;;17.48;46.44
15932;BME280;8065;49.520;11.284;2023-02-16T10:57:24;98532.25;;;17.47;45.84
15932;BME280;8065;49.520;11.284;2023-02-16T10:59:52;98529.22;;;17.49;46.03
15932;BME280;8065;49.520;11.284;2023-02-16T11:02:24;98520.59;;;17.43;46.27
15932;BME280;8065;49.520;11.284;2023-02-16T11:04:51;98516.47;;;17.46;46.56
15932;BME280;8065;49.520;11.284;2023-02-16T11:07:20;98513.41;;;17.84;45.86
15932;BME280;8065;49.520;11.284;2023-02-16T11:09:50;98511.28;;;17.65;45.53
15932;BME280;8065;49.520;11.284;2023-02-16T11:12:26;98514.31;;;17.88;45.18
15932;BME280;8065;49.520;11.284;2023-02-16T11:14:57;98508.63;;;17.53;45.38
15932;BME280;8065;49.520;11.284;2023-02-16T11:17:25;98510.53;;;17.40;45.68
15932;BME280;8065;49.520;11.284;2023-02-16T11:19:54;98500.78;;;17.60;45.57
15932;BME280;8065;49.520;11.284;2023-02-16T11:22:30;98498.66;;;17.78;45.44
15932;BME280;8065;49.520;11.284;2023-02-16T11:27:53;98489.09;;;17.92;45.27
15932;BME280;8065;49.520;11.284;2023-02-16T11:30:28;98483.50;;;17.85;45.05
15932;BME280;8065;49.520;11.284;2023-02-16T11:32:57;98475.81;;;18.27;44.77
15932;BME280;8065;49.520;11.284;2023-02-16T11:35:24;98472.41;;;18.58;44.78
15932;BME280;8065;49.520;11.284;2023-02-16T11:37:52;98465.06;;;18.71;44.69
15932;BME280;8065;49.520;11.284;2023-02-16T11:40:22;98463.63;;;18.46;44.21
15932;BME280;8065;49.520;11.284;2023-02-16T11:42:52;98464.34;;;18.58;44.57
15932;BME280;8065;49.520;11.284;2023-02-16T11:45:24;98465.06;;;18.71;44.02
15932;BME280;8065;49.520;11.284;2023-02-16T11:47:53;98459.19;;;18.53;44.34
15932;BME280;8065;49.520;11.284;2023-02-16T11:50:23;98465.09;;;18.43;44.15
15932;BME280;8065;49.520;11.284;2023-02-16T11:52:54;98451.44;;;18.80;44.36
15932;BME280;8065;49.520;11.284;2023-02-16T11:55:25;98463.25;;;18.91;44.42
15932;BME280;8065;49.520;11.284;2023-02-16T11:57:53;98458.31;;;18.77;44.49
15932;BME280;8065;49.520;11.284;2023-02-16T12:00:23;98454.38;;;18.75;44.49
15932;BME280;8065;49.520;11.284;2023-02-16T12:03:13;98458.22;;;19.05;44.11
15932;BME280;8065;49.520;11.284;2023-02-16T12:05:51;98446.81;;;18.64;44.25
15932;BME280;8065;49.520;11.284;2023-02-16T12:08:30;98450.06;;;18.42;44.62
15932;BME280;8065;49.520;11.284;2023-02-16T12:11:19;98446.59;;;18.42;44.98
15932;BME280;8065;49.520;11.284;2023-02-16T12:14:00;98440.66;;;18.80;44.65
15932;BME280;8065;49.520;11.284;2023-02-16T12:16:34;98439.19;;;18.82;44.61
15932;BME280;8065;49.520;11.284;2023-02-16T12:19:14;98432.75;;;18.71;44.50
15932;BME280;8065;49.520;11.284;2023-02-16T12:21:46;98433.88;;;18.86;44.46
15932;BME280;8065;49.520;11.284;2023-02-16T12:24:29;98434.94;;;18.38;45.15
15932;BME280;8065;49.520;11.284;2023-02-16T12:27:03;98439.47;;;18.33;45.27
15932;BME280;8065;49.520;11.284;2023-02-16T12:29:39;98427.16;;;18.48;45.00
15932;BME280;8065;49.520;11.284;2023-02-16T12:32:33;98427.97;;;18.64;45.11
15932;BME280;8065;49.520;11.284;2023-02-16T12:35:21;98424.69;;;18.87;44.57
15932;BME280;8065;49.520;11.284;2023-02-16T12:38:01;98413.38;;;18.97;44.79
15932;BME280;8065;49.520;11.284;2023-02-16T12:40:42;98416.78;;;18.62;44.99
15932;BME280;8065;49.520;11.284;2023-02-16T12:43:26;98415.16;;;18.14;45.53
15932;BME280;8065;49.520;11.284;2023-02-16T12:46:00;98414.91;;;18.35;46.09
15932;BME280;8065;49.520;11.284;2023-02-16T12:48:37;98409.94;;;18.37;45.83
15932;BME280;8065;49.520;11.284;2023-02-16T12:51:09;98399.84;;;18.78;44.83
15932;BME280;8065;49.520;11.284;2023-02-16T12:53:44;98403.72;;;18.96;45.16
15932;BME280;8065;49.520;11.284;2023-02-16T12:56:16;98399.94;;;19.16;44.77
15932;BME280;8065;49.520;11.284;2023-02-16T12:58:46;98393.28;;;19.29;44.75
15932;BME280;8065;49.520;11.284;2023-02-16T13:01:21;98394.00;;;19.26;44.43
15932;BME280;8065;49.520;11.284;2023-02-16T13:03:52;98379.84;;;19.49;44.38
15932;BME280;8065;49.520;11.284;2023-02-16T13:06:23;98384.22;;;19.38;44.43
15932;BME280;8065;49.520;11.284;2023-02-16T13:08:58;98375.94;;;19.11;44.69
15932;BME280;8065;49.520;11.284;2023-02-16T13:11:31;98376.63;;;19.24;44.67
15932;BME280;8065;49.520;11.284;2023-02-16T13:14:03;98380.03;;;18.86;45.31
15932;BME280;8065;49.520;11.284;2023-02-16T13:16:38;98368.88;;;19.03;44.99
15932;BME280;8065;49.520;11.284;2023-02-16T13:19:10;98365.31;;;19.18;44.29
15932;BME280;8065;49.520;11.284;2023-02-16T13:21:59;98369.31;;;19.24;44.25
15932;BME280;8065;49.520;11.284;2023-02-16T13:24:37;98359.34;;;18.90;45.04
15932;BME280;8065;49.520;11.284;2023-02-16T13:27:17;98362.28;;;18.85;45.31
15932;BME280;8065;49.520;11.284;2023-02-16T13:30:02;98367.34;;;18.71;45.50
15932;BME280;8065;49.520;11.284;2023-02-16T13:32:52;98360.41;;;18.70;45.41